Time,TemperatureF,DewpointF,PressureIn,WindDirection,WindDirectionDegrees,WindSpeedMPH,WindSpeedGustMPH,Humidity,HourlyPrecipIn,Conditions,Clouds,dailyrainin,SoftwareType,DateUTC
2013-07-08 00:06:00,64.9,64.6,30.06,NE,45,0.0,-999.0,99,-99.99,,,0.00,Acu-Link.com,2013-07-08 04:06:00,
2013-07-08 00:21:00,64.6,64.3,30.06,WSW,247,0.0,-999.0,99,-99.99,,,0.00,Acu-Link.com,2013-07-08 04:21:00,
2013-07-08 00:36:00,64.4,64.1,30.07,SW,225,0.0,-999.0,99,-99.99,,,0.00,Acu-Link.com,2013-07-08 04:36:00,
2013-07-08 00:51:00,64.4,64.1,30.07,WSW,247,0.0,-999.0,99,-99.99,,,0.00,Acu-Link.com,2013-07-08 04:51:00,
2013-07-08 01:07:00,64.6,64.3,30.08,SW,225,0.0,-999.0,99,-99.99,,,0.00,Acu-Link.com,2013-07-08 05:07:00,
2013-07-08 01:22:00,64.8,64.5,30.08,WSW,247,0.0,-999.0,99,-99.99,,,0.00,Acu-Link.com,2013-07-08 05:22:00,
2013-07-08 01:37:00,64.8,64.5,30.08,SW,225,0.0,-999.0,99,-99.99,,,0.00,Acu-Link.com,2013-07-08 05:37:00,
2013-07-08 01:52:00,64.8,64.5,30.08,WSW,247,0.0,-999.0,99,-99.99,,,0.00,Acu-Link.com,2013-07-08 05:52:00,
2013-07-08 02:07:00,64.4,64.1,30.07,WSW,247,0.0,-999.0,99,-99.99,,,0.00,Acu-Link.com,2013-07-08 06:07:00,
2013-07-08 02:23:00,64.2,63.9,30.07,WSW,247,0.0,-999.0,99,-99.99,,,0.00,Acu-Link.com,2013-07-08 06:23:00,
2013-07-08 02:38:00,64.4,64.1,30.06,SW,225,0.0,-999.0,99,-99.99,,,0.00,Acu-Link.com,2013-07-08 06:38:00,
2013-07-08 02:53:00,64.4,64.1,30.06,WSW,247,0.0,-999.0,99,-99.99,,,0.00,Acu-Link.com,2013-07-08 06:53:00,
2013-07-08 03:08:00,64.2,63.9,30.06,NE,45,0.0,-999.0,99,-99.99,,,0.00,Acu-Link.com,2013-07-08 07:08:00,
2013-07-08 03:24:00,63.7,63.4,30.06,WSW,247,0.0,-999.0,99,-99.99,,,0.00,Acu-Link.com,2013-07-08 07:24:00,
2013-07-08 03:39:00,64.0,63.7,30.06,WSW,247,0.0,-999.0,99,-99.99,,,0.00,Acu-Link.com,2013-07-08 07:39:00,
2013-07-08 03:54:00,63.9,63.6,30.06,South,180,0.0,-999.0,99,-99.99,,,0.00,Acu-Link.com,2013-07-08 07:54:00,
2013-07-08 04:09:00,63.5,63.2,30.06,WSW,247,0.0,-999.0,99,-99.99,,,0.00,Acu-Link.com,2013-07-08 08:09:00,
2013-07-08 04:25:00,63.5,63.2,30.07,SW,225,0.0,-999.0,99,-99.99,,,0.00,Acu-Link.com,2013-07-08 08:25:00,
2013-07-08 04:40:00,63.5,63.2,30.06,SSW,202,0.0,-999.0,99,-99.99,,,0.00,Acu-Link.com,2013-07-08 08:40:00,
2013-07-08 04:55:00,63.0,62.7,30.07,South,180,0.0,-999.0,99,-99.99,,,0.00,Acu-Link.com,2013-07-08 08:55:00,
2013-07-08 05:10:00,62.6,62.3,30.06,SSW,202,0.0,-999.0,99,-99.99,,,0.00,Acu-Link.com,2013-07-08 09:10:00,
2013-07-08 05:25:00,62.1,61.8,30.07,South,180,0.0,-999.0,99,-99.99,,,0.00,Acu-Link.com,2013-07-08 09:25:00,
2013-07-08 05:40:00,61.7,61.4,30.07,NNE,22,0.0,-999.0,99,-99.99,,,0.00,Acu-Link.com,2013-07-08 09:40:00,
2013-07-08 05:55:00,62.2,61.9,30.07,South,180,1.7,-999.0,99,-99.99,,,0.00,Acu-Link.com,2013-07-08 09:55:00,
2013-07-08 06:10:00,62.1,61.8,30.07,NNW,337,3.2,-999.0,99,-99.99,,,0.00,Acu-Link.com,2013-07-08 10:10:00,
2013-07-08 06:26:00,62.8,62.5,30.07,WNW,292,2.2,-999.0,99,-99.99,,,0.00,Acu-Link.com,2013-07-08 10:26:00,
2013-07-08 06:41:00,63.0,62.7,30.08,SE,135,1.1,-999.0,99,-99.99,,,0.00,Acu-Link.com,2013-07-08 10:41:00,
2013-07-08 06:56:00,63.9,63.6,30.08,WSW,247,2.2,-999.0,99,-99.99,,,0.00,Acu-Link.com,2013-07-08 10:56:00,
2013-07-08 07:12:00,66.0,65.7,30.08,ESE,112,2.2,-999.0,99,-99.99,,,0.00,Acu-Link.com,2013-07-08 11:12:00,
2013-07-08 07:27:00,68.4,66.9,30.08,SE,135,0.0,-999.0,95,-99.99,,,0.00,Acu-Link.com,2013-07-08 11:27:00,
2013-07-08 07:42:00,70.3,67.9,30.09,SE,135,1.7,-999.0,92,-99.99,,,0.00,Acu-Link.com,2013-07-08 11:42:00,
2013-07-08 07:57:00,72.0,68.6,30.10,South,180,2.2,-999.0,89,-99.99,,,0.00,Acu-Link.com,2013-07-08 11:57:00,
2013-07-08 08:13:00,70.0,67.6,30.09,South,180,0.0,-999.0,92,-99.99,,,0.00,Acu-Link.com,2013-07-08 12:13:00,
2013-07-08 08:28:00,70.2,67.1,30.10,NE,45,1.7,-999.0,90,-99.99,,,0.00,Acu-Link.com,2013-07-08 12:28:00,
2013-07-08 08:43:00,72.3,68.5,30.09,West,270,0.0,-999.0,88,-99.99,,,0.00,Acu-Link.com,2013-07-08 12:43:00,
2013-07-08 08:58:00,75.9,70.0,30.10,NW,315,0.0,-999.0,82,-99.99,,,0.00,Acu-Link.com,2013-07-08 12:58:00,
2013-07-08 09:14:00,78.3,68.9,30.10,SW,225,0.0,-999.0,73,-99.99,,,0.00,Acu-Link.com,2013-07-08 13:14:00,
2013-07-08 09:29:00,74.5,66.8,30.11,South,180,3.2,-999.0,77,-99.99,,,0.00,Acu-Link.com,2013-07-08 13:29:00,
2013-07-08 09:44:00,70.7,67.0,30.11,West,270,4.2,-999.0,88,-99.99,,,0.00,Acu-Link.com,2013-07-08 13:44:00,
2013-07-08 10:00:00,71.6,66.5,30.11,West,270,2.7,-999.0,84,-99.99,,,0.00,Acu-Link.com,2013-07-08 14:00:00,
2013-07-08 10:15:00,71.6,66.2,30.11,SW,225,1.7,-999.0,83,-99.99,,,0.00,Acu-Link.com,2013-07-08 14:15:00,
2013-07-08 10:30:00,72.3,67.2,30.11,NNE,22,4.2,-999.0,84,-99.99,,,0.00,Acu-Link.com,2013-07-08 14:30:00,
2013-07-08 10:45:00,72.7,67.6,30.10,WSW,247,1.7,-999.0,84,-99.99,,,0.00,Acu-Link.com,2013-07-08 14:45:00,
2013-07-08 11:00:00,71.2,65.8,30.11,West,270,1.1,-999.0,83,-99.99,,,0.00,Acu-Link.com,2013-07-08 15:00:00,
2013-07-08 11:16:00,73.6,68.1,30.11,West,270,2.7,-999.0,83,-99.99,,,0.00,Acu-Link.com,2013-07-08 15:16:00,
2013-07-08 11:31:00,73.2,67.7,30.11,SSW,202,2.2,-999.0,83,-99.99,,,0.00,Acu-Link.com,2013-07-08 15:31:00,
2013-07-08 11:46:00,73.4,67.2,30.11,West,270,2.7,-999.0,81,-99.99,,,0.00,Acu-Link.com,2013-07-08 15:46:00,
2013-07-08 12:01:00,72.9,65.6,30.10,West,270,2.7,-999.0,78,-99.99,,,0.00,Acu-Link.com,2013-07-08 16:01:00,
2013-07-08 12:16:00,72.3,66.5,30.10,SW,225,1.1,-999.0,82,-99.99,,,0.00,Acu-Link.com,2013-07-08 16:16:00,
2013-07-08 12:32:00,75.0,67.3,30.10,SW,225,1.7,-999.0,77,-99.99,,,0.00,Acu-Link.com,2013-07-08 16:32:00,
2013-07-08 12:47:00,76.1,66.8,30.08,WSW,247,2.7,-999.0,73,-99.99,,,0.00,Acu-Link.com,2013-07-08 16:47:00,
2013-07-08 13:18:00,72.7,65.8,30.09,WSW,247,1.1,-999.0,79,-99.99,,,0.00,Acu-Link.com,2013-07-08 17:18:00,
2013-07-08 13:33:00,73.4,66.1,30.08,WNW,292,1.7,-999.0,78,-99.99,,,0.00,Acu-Link.com,2013-07-08 17:33:00,
2013-07-08 13:48:00,75.0,66.1,30.07,West,270,0.0,-999.0,74,-99.99,,,0.00,Acu-Link.com,2013-07-08 17:48:00,
2013-07-08 14:03:00,75.0,68.0,30.07,SW,225,1.7,-999.0,79,-99.99,,,0.00,Acu-Link.com,2013-07-08 18:03:00,
2013-07-08 14:18:00,75.7,68.7,30.07,South,180,0.0,-999.0,79,-99.99,,,0.00,Acu-Link.com,2013-07-08 18:18:00,
2013-07-08 14:34:00,75.4,68.4,30.06,WSW,247,1.7,-999.0,79,-99.99,,,0.00,Acu-Link.com,2013-07-08 18:34:00,
2013-07-08 15:19:00,77.0,67.3,30.05,West,270,3.2,-999.0,72,-99.99,,,0.00,Acu-Link.com,2013-07-08 19:19:00,
2013-07-08 15:35:00,77.4,66.8,30.06,WSW,247,2.7,-999.0,70,-99.99,,,0.00,Acu-Link.com,2013-07-08 19:35:00,
2013-07-08 15:50:00,78.6,67.1,30.05,SW,225,2.7,-999.0,68,-99.99,,,0.00,Acu-Link.com,2013-07-08 19:50:00,
2013-07-08 16:36:00,78.8,68.2,30.03,WSW,247,2.7,-999.0,70,-99.99,,,0.00,Acu-Link.com,2013-07-08 20:36:00,
2013-07-08 17:06:00,82.2,68.3,30.02,SW,225,1.7,-999.0,63,-99.99,,,0.00,Acu-Link.com,2013-07-08 21:06:00,
2013-07-08 17:36:00,85.1,70.6,30.02,SSW,202,1.7,-999.0,62,-99.99,,,0.00,Acu-Link.com,2013-07-08 21:36:00,
2013-07-08 17:52:00,87.8,66.8,30.02,NW,315,0.0,-999.0,50,-99.99,,,0.00,Acu-Link.com,2013-07-08 21:52:00,
2013-07-08 18:07:00,86.0,67.4,30.02,WSW,247,1.7,-999.0,54,-99.99,,,0.00,Acu-Link.com,2013-07-08 22:07:00,
2013-07-08 18:22:00,87.1,68.4,30.02,SW,225,0.0,-999.0,54,-99.99,,,0.00,Acu-Link.com,2013-07-08 22:22:00,
2013-07-08 18:37:00,84.6,68.2,30.02,SE,135,1.1,-999.0,58,-99.99,,,0.00,Acu-Link.com,2013-07-08 22:37:00,
2013-07-08 19:08:00,83.3,67.9,30.03,ESE,112,0.0,-999.0,60,-99.99,,,0.00,Acu-Link.com,2013-07-08 23:08:00,
2013-07-08 19:23:00,80.6,68.6,30.03,ESE,112,0.0,-999.0,67,-99.99,,,0.00,Acu-Link.com,2013-07-08 23:23:00,
2013-07-08 19:39:00,76.5,67.6,30.03,SE,135,0.0,-999.0,74,-99.99,,,0.00,Acu-Link.com,2013-07-08 23:39:00,
2013-07-08 19:54:00,76.3,68.5,30.03,SE,135,0.0,-999.0,77,-99.99,,,0.00,Acu-Link.com,2013-07-08 23:54:00,
2013-07-08 20:24:00,71.6,67.5,30.05,East,90,0.0,-999.0,87,-99.99,,,0.00,Acu-Link.com,2013-07-09 00:24:00,
2013-07-08 21:25:00,67.3,66.4,30.07,ESE,112,0.0,-999.0,97,-99.99,,,0.00,Acu-Link.com,2013-07-09 01:25:00,
2013-07-08 21:56:00,66.4,65.8,30.09,SE,135,0.0,-999.0,98,-99.99,,,0.00,Acu-Link.com,2013-07-09 01:56:00,
2013-07-08 22:42:00,65.3,65.0,30.10,ESE,112,0.0,-999.0,99,-99.99,,,0.00,Acu-Link.com,2013-07-09 02:42:00,
2013-07-08 23:13:00,64.4,64.1,30.09,SSE,157,0.0,-999.0,99,-99.99,,,0.00,Acu-Link.com,2013-07-09 03:13:00,
2013-07-08 23:28:00,64.2,63.9,30.09,SSE,157,0.0,-999.0,99,-99.99,,,0.00,Acu-Link.com,2013-07-09 03:28:00,
2013-07-08 23:43:00,64.0,63.7,30.10,SSE,157,0.0,-999.0,99,-99.99,,,0.00,Acu-Link.com,2013-07-09 03:43:00,